Decoded Metar for VHHH (HONG KONG in HONG KONG) (IATA:HKG) | Meteo·Mobile Aviation Weather
aviador You're here:

VHHH Decoded Metar

HONG KONG in HONG KONG
Report Time2019-02-21 23:30:00
UTC Time2019-02-21 23:41:50
Flight Rules vfr VFR
Wind320° at 13 kt
W.Decomp.*RWY 25: 4.0 kt HW 12.4 kt RCW
W.Rank320° ranks 24
Current wind is above 320° avg. (7.9)
Visibility9999 m
Phenomena:N/A
Clouds:Few 010 Hf
Scattered 030 Hf
Expected CloudBase > 800 ft AGL from Temp-Dew spread
CeilingNone
Temp17°C (ISA +2)
Dew Point15°C (88% RH)
AAT13.9°C
QNH1018 hPa
Density Alt331 ft
Elevation30 ft
Report Wrong Elevation
Raw Report
METAR VHHH 212330Z 32013KT 9999 FEW010 SCT030 17/15 Q1018 NOSIG=

Extra information for VHHH:More info

Metar Taf Metar & Taf Last 4 Metars F.Rules Stats Wind Profile Meteogram Temp Stats Airport Information Weather charts Add Link Nearby VenuesMetar ALERT Operation Metar Decoded Social comments